WetterOnline ( http://www.wetteronline.de )

Wetter aktuell Lieser

Aktuelles Wetter: Deuselbach (483m)

6-stündlich | Neueste Meldungen
Ortszeit Temperatur Wetter
Di, 25.04. 14:00 5.7° C bewölkt
Di, 25.04. 8:00 5.6° C bedeckt
Di, 25.04. 2:00 6.1° C bedeckt
Mo, 24.04. 20:00 11.7° C bedeckt
Ortszeit Temperatur Wetter
Di, 25.04. 16:00 6.8° C bedeckt
Di, 25.04. 15:30 6.3° C bewölkt
Di, 25.04. 15:00 6.1° C bewölkt
Di, 25.04. 14:30 5.7° C bewölkt
Di, 25.04. 14:00 5.7° C bewölkt
Di, 25.04. 13:30 6.0° C bedeckt
Ortszeit Relative Feuchte Sichtweite
Di, 25.04. 14:00 58% 12 km
Di, 25.04. 8:00 88% 15 km
Di, 25.04. 2:00 66% 45 km
Mo, 24.04. 20:00 44% 45 km
Ortszeit Relative Feuchte Sichtweite
Di, 25.04. 16:00 45% 13 km
Di, 25.04. 15:30 47% 45 km
Di, 25.04. 15:00 49% 7 km
Di, 25.04. 14:30 49% 12 km
Di, 25.04. 14:00 58% 12 km
Di, 25.04. 13:30 65% 4.6 km
Ortszeit Niederschlagsmenge Niederschlagsart
Di, 25.04. 14:00 0.1 l/m2 in 6 Std. Regen
Di, 25.04. 8:00 0,0 l/m2 in 12 Std. -
Di, 25.04. 2:00 0,0 l/m2 in 6 Std. -
Mo, 24.04. 20:00 0,0 l/m2 in 12 Std. -
Ortszeit Niederschlagsmenge Niederschlagsart
Di, 25.04. 16:00 0,0 l/m2 in 1 Std. -
Di, 25.04. 15:30 keine Meldung -
Di, 25.04. 15:00 0,0 l/m2 in 1 Std. -
Di, 25.04. 14:30 keine Meldung -
Di, 25.04. 14:00 0,0 l/m2 in 1 Std. Regen
Di, 25.04. 13:30 keine Meldung -
Ortszeit Stärke Spitze Richtung
km/h Bft. km/h Grad Sektor
Di, 25.04. 14:00 24 4 43 280° W
Di, 25.04. 8:00 25 4 40 280° W
Di, 25.04. 2:00 9 2 24 210° SW
Mo, 24.04. 20:00 19 3 30 260° W
Ortszeit Stärke Spitze Richtung
km/h Bft. km/h Grad Sektor
Di, 25.04. 16:00 18 3 36 290° W
Di, 25.04. 15:30 24 4 35 290° W
Di, 25.04. 15:00 18 3 32 310° NW
Di, 25.04. 14:30 19 3 30 320° NW
Di, 25.04. 14:00 24 4 33 280° W
Di, 25.04. 13:30 22 4 33 270° W
Ortszeit Untergrenze Bedeckung Gattung
total tief tief mittel hoch
Di, 25.04. 14:00 960 m 7/8 7/8 - - -
Di, 25.04. 8:00 270 m 8/8 8/8 - - -
Di, 25.04. 2:00 6300 m 8/8 8/8 - - -
Mo, 24.04. 20:00 5100 m 8/8 8/8 - - -
Ortszeit Bedeckungsgrad in Achtel und Wolkenuntergrenze
Di, 25.04. 16:00 6(1800m) 8(2700m)
Di, 25.04. 15:30 7(2100m)
Di, 25.04. 15:00 1(1290m) 7(1800m)
Di, 25.04. 14:30 1(1170m) 7(1800m)
Di, 25.04. 14:00 5(960m) 7(1500m) 7(1800m)
Di, 25.04. 13:30 3(780m) 6(2100m) 8(2700m)
Ortszeit Luftdruck NN (hPa) Tendenz (hPa in 3 Std.)
Di, 25.04. 14:00 1011 + 0,6
Di, 25.04. 8:00 1008 + 0,7
Di, 25.04. 2:00 1009 - 1,6
Mo, 24.04. 20:00 1010 - 1,7
Ortszeit Luftdruck NN (hPa) Tendenz (hPa in 3 Std.)
Di, 25.04. 16:00 1010 + 0,1
Di, 25.04. 15:30 1010 + 0,2
Di, 25.04. 15:00 1011 + 0,4
Di, 25.04. 14:30 1011 + 0,6
Di, 25.04. 14:00 1011 + 0,6
Di, 25.04. 13:30 1010 + 0,5
Ortszeit Schneehöhe (cm)
Di, 25.04. 14:00 -
Di, 25.04. 8:00 -
Di, 25.04. 2:00 -
Mo, 24.04. 20:00 -
Ortszeit Schneehöhe (cm)
Di, 25.04. 16:00 -
Di, 25.04. 15:30 -
Di, 25.04. 15:00 -
Di, 25.04. 14:30 -
Di, 25.04. 14:00 -
Di, 25.04. 13:30 -
Link zu dieser Seite / Seite empfehlen

Das Wetter in ...